Baucum, Arkansas
Current Conditions -  °F | °C
As of 12:53 PM on Thursday 23 Oct 2014 (Local Time) from KLIT Reporting Station
Overcast Overcast  
Wind Chill: 62°   Ceiling: 25000
Heat Index: 62°   Visibility: 10mi
Dew Point: 45°   Wind: 3mph
Humidity: 53%   Direction: 30°NNE
Pressure: 30.19"   Gusts: NA
Location:  34.757°N, 92.1411°W
Report Text: KLIT 231753Z 03003KT 10SM FEW090 SCT150 OVC250 17/07 A3019 RMK AO2 SLP224 BINOVC W-NW T01670072 10167 20083 58012
Loading
Personal Weather Stations






























Interactive Weather Map
Tropical Storm Tracking
New forecast layout! Learn more

10-Day Weather Forecast

Advertisements
Track Severe Weather on mobile